sensor_id;sensor_type;location;lat;lon;timestamp;pressure;altitude;pressure_sealevel;temperature;humidity
67818;BME280;54614;47.576;7.524;2023-05-23T00:00:59;98347.00;;;25.80;42.86
67818;BME280;54614;47.576;7.524;2023-05-23T00:03:26;98353.66;;;25.77;42.87
67818;BME280;54614;47.576;7.524;2023-05-23T00:05:52;98347.69;;;25.75;43.02
67818;BME280;54614;47.576;7.524;2023-05-23T00:08:18;98352.03;;;25.76;42.78
67818;BME280;54614;47.576;7.524;2023-05-23T00:10:44;98358.09;;;25.72;43.01
67818;BME280;54614;47.576;7.524;2023-05-23T00:13:11;98357.94;;;25.66;43.03
67818;BME280;54614;47.576;7.524;2023-05-23T00:15:41;98357.94;;;25.66;43.12
67818;BME280;54614;47.576;7.524;2023-05-23T00:18:08;98362.44;;;25.73;42.97
67818;BME280;54614;47.576;7.524;2023-05-23T00:20:42;98359.59;;;25.67;43.25
67818;BME280;54614;47.576;7.524;2023-05-23T00:23:10;98358.31;;;25.70;42.96
67818;BME280;54614;47.576;7.524;2023-05-23T00:25:36;98359.25;;;25.57;43.56
67818;BME280;54614;47.576;7.524;2023-05-23T00:28:05;98364.38;;;25.65;43.31
67818;BME280;54614;47.576;7.524;2023-05-23T00:30:32;98361.94;;;25.57;43.29
67818;BME280;54614;47.576;7.524;2023-05-23T00:32:59;98363.09;;;25.68;43.05
67818;BME280;54614;47.576;7.524;2023-05-23T00:35:25;98363.13;;;25.61;43.18
67818;BME280;54614;47.576;7.524;2023-05-23T00:37:52;98362.28;;;25.67;43.06
67818;BME280;54614;47.576;7.524;2023-05-23T00:40:18;98361.03;;;25.63;43.09
67818;BME280;54614;47.576;7.524;2023-05-23T00:42:44;98356.22;;;25.72;43.04
67818;BME280;54614;47.576;7.524;2023-05-23T00:45:11;98362.66;;;25.71;43.09
67818;BME280;54614;47.576;7.524;2023-05-23T00:47:41;98350.69;;;25.67;42.80
67818;BME280;54614;47.576;7.524;2023-05-23T00:50:12;98353.03;;;25.57;43.25
67818;BME280;54614;47.576;7.524;2023-05-23T00:52:41;98354.25;;;25.61;43.29
67818;BME280;54614;47.576;7.524;2023-05-23T00:55:07;98352.38;;;25.61;43.18
67818;BME280;54614;47.576;7.524;2023-05-23T00:57:35;98351.84;;;25.53;43.34
67818;BME280;54614;47.576;7.524;2023-05-23T01:00:07;98352.22;;;25.56;43.34
67818;BME280;54614;47.576;7.524;2023-05-23T01:02:39;98349.53;;;25.56;43.43
67818;BME280;54614;47.576;7.524;2023-05-23T01:05:09;98357.75;;;25.61;43.21
67818;BME280;54614;47.576;7.524;2023-05-23T01:07:36;98351.91;;;25.64;43.15
67818;BME280;54614;47.576;7.524;2023-05-23T01:10:03;98350.50;;;25.62;43.03
67818;BME280;54614;47.576;7.524;2023-05-23T01:21:42;98366.13;;;25.53;43.17
67818;BME280;54614;47.576;7.524;2023-05-23T01:27:50;98360.75;;;25.53;43.40
67818;BME280;54614;47.576;7.524;2023-05-23T01:30:19;98365.84;;;25.61;43.29
67818;BME280;54614;47.576;7.524;2023-05-23T01:32:49;98359.34;;;25.69;42.98
67818;BME280;54614;47.576;7.524;2023-05-23T01:35:24;98364.84;;;25.56;43.03
67818;BME280;54614;47.576;7.524;2023-05-23T01:37:54;98362.91;;;25.63;43.06
67818;BME280;54614;47.576;7.524;2023-05-23T01:40:23;98368.22;;;25.51;43.30
67818;BME280;54614;47.576;7.524;2023-05-23T01:42:50;98370.06;;;25.76;42.75
67818;BME280;54614;47.576;7.524;2023-05-23T01:45:16;98370.13;;;25.69;42.89
67818;BME280;54614;47.576;7.524;2023-05-23T01:47:43;98370.59;;;25.66;42.97
67818;BME280;54614;47.576;7.524;2023-05-23T01:50:11;98376.72;;;25.73;42.91
67818;BME280;54614;47.576;7.524;2023-05-23T01:52:37;98381.13;;;25.67;43.06
67818;BME280;54614;47.576;7.524;2023-05-23T01:55:05;98382.72;;;25.75;42.90
67818;BME280;54614;47.576;7.524;2023-05-23T01:57:37;98382.94;;;25.74;42.87
67818;BME280;54614;47.576;7.524;2023-05-23T02:00:08;98376.00;;;25.59;43.14
67818;BME280;54614;47.576;7.524;2023-05-23T02:02:36;98376.88;;;25.78;42.66
67818;BME280;54614;47.576;7.524;2023-05-23T02:05:02;98372.13;;;25.55;42.92
67818;BME280;54614;47.576;7.524;2023-05-23T02:07:28;98367.66;;;25.67;42.92
67818;BME280;54614;47.576;7.524;2023-05-23T02:09:54;98376.34;;;25.69;42.94
67818;BME280;54614;47.576;7.524;2023-05-23T02:12:20;98376.78;;;25.66;42.71
67818;BME280;54614;47.576;7.524;2023-05-23T02:14:46;98378.81;;;25.71;42.55
67818;BME280;54614;47.576;7.524;2023-05-23T02:17:12;98386.53;;;25.67;42.91
67818;BME280;54614;47.576;7.524;2023-05-23T02:19:41;98388.34;;;25.49;43.20
67818;BME280;54614;47.576;7.524;2023-05-23T02:22:07;98388.44;;;25.60;43.11
67818;BME280;54614;47.576;7.524;2023-05-23T02:24:33;98389.91;;;25.56;43.13
67818;BME280;54614;47.576;7.524;2023-05-23T02:26:59;98397.53;;;25.66;43.07
67818;BME280;54614;47.576;7.524;2023-05-23T02:29:25;98396.25;;;25.68;42.73
67818;BME280;54614;47.576;7.524;2023-05-23T02:31:50;98402.25;;;25.70;42.71
67818;BME280;54614;47.576;7.524;2023-05-23T02:34:16;98402.25;;;25.70;42.83
67818;BME280;54614;47.576;7.524;2023-05-23T02:36:42;98401.03;;;25.66;42.98
67818;BME280;54614;47.576;7.524;2023-05-23T02:39:08;98394.97;;;25.71;42.61
67818;BME280;54614;47.576;7.524;2023-05-23T02:41:34;98397.53;;;25.66;42.69
67818;BME280;54614;47.576;7.524;2023-05-23T02:44:01;98394.38;;;25.44;43.19
67818;BME280;54614;47.576;7.524;2023-05-23T02:46:27;98396.19;;;25.50;43.08
67818;BME280;54614;47.576;7.524;2023-05-23T02:48:53;98402.34;;;25.57;43.12
67818;BME280;54614;47.576;7.524;2023-05-23T02:51:19;98392.38;;;25.39;43.67
67818;BME280;54614;47.576;7.524;2023-05-23T02:53:45;98401.66;;;25.44;43.40
67818;BME280;54614;47.576;7.524;2023-05-23T02:56:11;98397.25;;;25.49;43.30
67818;BME280;54614;47.576;7.524;2023-05-23T02:58:38;98397.94;;;25.63;43.07
67818;BME280;54614;47.576;7.524;2023-05-23T03:01:05;98397.69;;;25.46;43.44
67818;BME280;54614;47.576;7.524;2023-05-23T03:03:30;98389.25;;;25.61;43.13
67818;BME280;54614;47.576;7.524;2023-05-23T03:05:57;98392.31;;;25.64;42.95
67818;BME280;54614;47.576;7.524;2023-05-23T03:08:23;98383.09;;;25.54;43.10
67818;BME280;54614;47.576;7.524;2023-05-23T03:10:50;98394.47;;;25.56;43.05
67818;BME280;54614;47.576;7.524;2023-05-23T03:13:16;98383.63;;;25.62;43.07
67818;BME280;54614;47.576;7.524;2023-05-23T03:15:42;98384.38;;;25.51;43.12
67818;BME280;54614;47.576;7.524;2023-05-23T03:18:08;98389.22;;;25.67;42.94
67818;BME280;54614;47.576;7.524;2023-05-23T03:20:34;98381.31;;;25.48;43.13
67818;BME280;54614;47.576;7.524;2023-05-23T03:23:00;98383.88;;;25.61;43.07
67818;BME280;54614;47.576;7.524;2023-05-23T03:25:25;98387.44;;;25.55;43.28
67818;BME280;54614;47.576;7.524;2023-05-23T03:27:51;98391.34;;;25.59;42.94
67818;BME280;54614;47.576;7.524;2023-05-23T03:30:17;98390.66;;;25.45;43.15
67818;BME280;54614;47.576;7.524;2023-05-23T03:32:43;98392.28;;;25.71;42.86
67818;BME280;54614;47.576;7.524;2023-05-23T03:35:09;98387.94;;;25.70;43.00
67818;BME280;54614;47.576;7.524;2023-05-23T03:37:36;98394.19;;;25.64;43.19
67818;BME280;54614;47.576;7.524;2023-05-23T03:40:02;98400.38;;;25.71;42.88
67818;BME280;54614;47.576;7.524;2023-05-23T03:42:28;98400.41;;;25.64;43.02
67818;BME280;54614;47.576;7.524;2023-05-23T03:44:54;98406.00;;;25.63;43.14
67818;BME280;54614;47.576;7.524;2023-05-23T03:47:20;98403.38;;;25.56;43.26
67818;BME280;54614;47.576;7.524;2023-05-23T03:49:46;98404.34;;;25.44;43.47
67818;BME280;54614;47.576;7.524;2023-05-23T03:52:12;98409.22;;;25.53;43.40
67818;BME280;54614;47.576;7.524;2023-05-23T03:54:37;98406.69;;;25.58;42.96
67818;BME280;54614;47.576;7.524;2023-05-23T03:57:03;98414.50;;;25.66;43.06
67818;BME280;54614;47.576;7.524;2023-05-23T03:59:29;98402.94;;;25.59;43.31
67818;BME280;54614;47.576;7.524;2023-05-23T04:01:55;98410.69;;;25.74;42.91
67818;BME280;54614;47.576;7.524;2023-05-23T04:04:23;98406.91;;;25.57;43.16
67818;BME280;54614;47.576;7.524;2023-05-23T04:06:50;98412.06;;;25.58;43.25
67818;BME280;54614;47.576;7.524;2023-05-23T04:09:16;98415.53;;;25.65;43.04
67818;BME280;54614;47.576;7.524;2023-05-23T04:11:43;98415.38;;;25.60;42.99
67818;BME280;54614;47.576;7.524;2023-05-23T04:14:09;98422.00;;;25.58;43.25
67818;BME280;54614;47.576;7.524;2023-05-23T04:16:36;98423.34;;;25.49;43.52
67818;BME280;54614;47.576;7.524;2023-05-23T04:19:02;98427.16;;;25.66;43.25
67818;BME280;54614;47.576;7.524;2023-05-23T04:21:31;98434.28;;;25.54;43.45
67818;BME280;54614;47.576;7.524;2023-05-23T04:23:57;98428.91;;;25.54;43.39
67818;BME280;54614;47.576;7.524;2023-05-23T04:26:23;98429.66;;;25.61;43.33
67818;BME280;54614;47.576;7.524;2023-05-23T04:28:49;98427.47;;;25.51;43.48
67818;BME280;54614;47.576;7.524;2023-05-23T04:31:21;98431.66;;;25.72;42.90
67818;BME280;54614;47.576;7.524;2023-05-23T04:33:48;98422.97;;;25.70;43.19
67818;BME280;54614;47.576;7.524;2023-05-23T04:36:14;98436.47;;;25.63;43.12
67818;BME280;54614;47.576;7.524;2023-05-23T04:38:40;98439.00;;;25.58;43.20
67818;BME280;54614;47.576;7.524;2023-05-23T04:41:07;98430.66;;;25.66;43.16
67818;BME280;54614;47.576;7.524;2023-05-23T04:43:35;98445.19;;;25.65;43.35
67818;BME280;54614;47.576;7.524;2023-05-23T04:46:02;98443.94;;;25.61;43.29
67818;BME280;54614;47.576;7.524;2023-05-23T04:48:29;98447.69;;;25.60;43.26
67818;BME280;54614;47.576;7.524;2023-05-23T04:50:55;98447.47;;;25.62;43.37
67818;BME280;54614;47.576;7.524;2023-05-23T04:53:22;98450.13;;;25.44;43.76
67818;BME280;54614;47.576;7.524;2023-05-23T04:55:48;98447.41;;;25.44;43.70
67818;BME280;54614;47.576;7.524;2023-05-23T04:58:13;98452.31;;;25.53;43.42
67818;BME280;54614;47.576;7.524;2023-05-23T05:00:39;98462.34;;;25.64;43.24
67818;BME280;54614;47.576;7.524;2023-05-23T05:03:05;98461.97;;;25.61;43.39
67818;BME280;54614;47.576;7.524;2023-05-23T05:05:31;98459.88;;;25.63;43.09
67818;BME280;54614;47.576;7.524;2023-05-23T05:07:56;98463.63;;;25.62;43.25
67818;BME280;54614;47.576;7.524;2023-05-23T05:10:22;98460.72;;;25.63;43.25
67818;BME280;54614;47.576;7.524;2023-05-23T05:12:48;98451.59;;;25.64;43.53
67818;BME280;54614;47.576;7.524;2023-05-23T05:15:16;98445.22;;;25.59;43.77
67818;BME280;54614;47.576;7.524;2023-05-23T05:17:43;98462.25;;;25.53;43.98
67818;BME280;54614;47.576;7.524;2023-05-23T05:20:09;98450.16;;;25.62;43.67
67818;BME280;54614;47.576;7.524;2023-05-23T05:22:39;98453.13;;;25.79;43.21
67818;BME280;54614;47.576;7.524;2023-05-23T05:25:08;98449.84;;;25.77;43.32
67818;BME280;54614;47.576;7.524;2023-05-23T05:27:35;98453.34;;;25.52;44.90
67818;BME280;54614;47.576;7.524;2023-05-23T05:30:08;98454.72;;;25.36;46.12
67818;BME280;54614;47.576;7.524;2023-05-23T05:32:34;98459.66;;;25.15;46.73
67818;BME280;54614;47.576;7.524;2023-05-23T05:35:00;98459.16;;;24.99;47.21
67818;BME280;54614;47.576;7.524;2023-05-23T05:37:27;98465.81;;;24.90;47.53
67818;BME280;54614;47.576;7.524;2023-05-23T05:39:54;98470.03;;;24.73;48.30
67818;BME280;54614;47.576;7.524;2023-05-23T05:42:21;98467.28;;;24.86;47.54
67818;BME280;54614;47.576;7.524;2023-05-23T05:44:47;98472.56;;;24.68;48.63
67818;BME280;54614;47.576;7.524;2023-05-23T05:47:14;98464.88;;;24.71;48.27
67818;BME280;54614;47.576;7.524;2023-05-23T05:49:40;98469.19;;;24.79;48.22
67818;BME280;54614;47.576;7.524;2023-05-23T05:52:07;98467.06;;;24.88;48.63
67818;BME280;54614;47.576;7.524;2023-05-23T05:54:33;98468.94;;;24.87;48.27
67818;BME280;54614;47.576;7.524;2023-05-23T05:57:00;98470.63;;;24.82;48.51
67818;BME280;54614;47.576;7.524;2023-05-23T05:59:26;98478.28;;;24.78;48.43
67818;BME280;54614;47.576;7.524;2023-05-23T06:01:52;98479.13;;;25.17;47.08
67818;BME280;54614;47.576;7.524;2023-05-23T06:04:18;98483.63;;;25.23;46.77
67818;BME280;54614;47.576;7.524;2023-05-23T06:06:44;98476.59;;;25.22;47.04
67818;BME280;54614;47.576;7.524;2023-05-23T06:09:10;98482.84;;;25.16;47.09
67818;BME280;54614;47.576;7.524;2023-05-23T06:11:36;98478.69;;;25.20;47.03
67818;BME280;54614;47.576;7.524;2023-05-23T06:14:08;98485.28;;;25.24;47.11
67818;BME280;54614;47.576;7.524;2023-05-23T06:17:13;98478.69;;;25.20;47.11
67818;BME280;54614;47.576;7.524;2023-05-23T06:19:39;98476.25;;;25.61;45.88
67818;BME280;54614;47.576;7.524;2023-05-23T06:22:05;98485.03;;;25.82;45.17
67818;BME280;54614;47.576;7.524;2023-05-23T06:24:30;98484.03;;;25.76;45.16
67818;BME280;54614;47.576;7.524;2023-05-23T06:26:56;98483.81;;;25.78;45.24
67818;BME280;54614;47.576;7.524;2023-05-23T06:29:22;98491.44;;;25.81;44.96
67818;BME280;54614;47.576;7.524;2023-05-23T06:31:48;98486.00;;;25.87;45.01
67818;BME280;54614;47.576;7.524;2023-05-23T06:34:15;98488.69;;;25.87;44.73
67818;BME280;54614;47.576;7.524;2023-05-23T06:36:41;98486.22;;;25.86;44.57
67818;BME280;54614;47.576;7.524;2023-05-23T06:39:08;98486.44;;;25.84;44.42
67818;BME280;54614;47.576;7.524;2023-05-23T06:41:35;98492.22;;;25.88;44.51
67818;BME280;54614;47.576;7.524;2023-05-23T06:44:00;98499.47;;;25.87;44.55
67818;BME280;54614;47.576;7.524;2023-05-23T06:46:26;98500.75;;;25.85;44.72
67818;BME280;54614;47.576;7.524;2023-05-23T06:48:52;98500.69;;;25.91;44.29
67818;BME280;54614;47.576;7.524;2023-05-23T06:51:18;98493.53;;;25.79;44.76
67818;BME280;54614;47.576;7.524;2023-05-23T06:53:43;98493.53;;;25.79;44.83
67818;BME280;54614;47.576;7.524;2023-05-23T06:56:09;98505.75;;;25.81;44.55
67818;BME280;54614;47.576;7.524;2023-05-23T06:58:35;98503.06;;;25.81;44.73
67818;BME280;54614;47.576;7.524;2023-05-23T07:01:01;98504.72;;;25.82;44.87
67818;BME280;54614;47.576;7.524;2023-05-23T07:03:26;98507.28;;;25.70;45.05
67818;BME280;54614;47.576;7.524;2023-05-23T07:05:52;98510.91;;;25.83;44.97
67818;BME280;54614;47.576;7.524;2023-05-23T07:08:18;98508.88;;;25.78;44.79
67818;BME280;54614;47.576;7.524;2023-05-23T07:10:44;98508.94;;;25.72;45.19
67818;BME280;54614;47.576;7.524;2023-05-23T07:13:09;98515.81;;;25.67;45.24
67818;BME280;54614;47.576;7.524;2023-05-23T07:15:36;98508.16;;;25.64;45.35
67818;BME280;54614;47.576;7.524;2023-05-23T07:18:02;98514.91;;;25.49;45.85
67818;BME280;54614;47.576;7.524;2023-05-23T07:20:28;98511.56;;;25.53;45.61
67818;BME280;54614;47.576;7.524;2023-05-23T07:22:54;98516.66;;;25.61;45.49
67818;BME280;54614;47.576;7.524;2023-05-23T07:25:21;98512.47;;;25.72;45.56
67818;BME280;54614;47.576;7.524;2023-05-23T07:27:47;98521.75;;;25.76;45.38
67818;BME280;54614;47.576;7.524;2023-05-23T07:30:13;98526.31;;;25.76;45.43
67818;BME280;54614;47.576;7.524;2023-05-23T07:32:41;98516.75;;;25.80;45.25
67818;BME280;54614;47.576;7.524;2023-05-23T07:35:07;98522.13;;;25.80;45.37
67818;BME280;54614;47.576;7.524;2023-05-23T07:37:33;98525.50;;;25.75;45.45
67818;BME280;54614;47.576;7.524;2023-05-23T07:39:59;98522.84;;;25.68;45.51
67818;BME280;54614;47.576;7.524;2023-05-23T07:42:25;98519.28;;;25.75;45.20
67818;BME280;54614;47.576;7.524;2023-05-23T07:44:51;98521.00;;;25.69;45.20
67818;BME280;54614;47.576;7.524;2023-05-23T07:47:16;98517.81;;;25.47;45.68
67818;BME280;54614;47.576;7.524;2023-05-23T07:49:42;98514.09;;;25.48;45.68
67818;BME280;54614;47.576;7.524;2023-05-23T07:52:09;98515.97;;;25.73;45.44
67818;BME280;54614;47.576;7.524;2023-05-23T07:54:34;98515.53;;;25.76;45.24
67818;BME280;54614;47.576;7.524;2023-05-23T07:57:00;98515.53;;;25.76;45.13
67818;BME280;54614;47.576;7.524;2023-05-23T07:59:26;98517.03;;;25.72;45.07
67818;BME280;54614;47.576;7.524;2023-05-23T08:01:52;98521.38;;;25.73;44.91
67818;BME280;54614;47.576;7.524;2023-05-23T08:04:17;98512.25;;;25.74;45.26
67818;BME280;54614;47.576;7.524;2023-05-23T08:06:43;98516.03;;;25.66;45.52
67818;BME280;54614;47.576;7.524;2023-05-23T08:09:12;98512.63;;;25.77;45.35
67818;BME280;54614;47.576;7.524;2023-05-23T08:11:38;98517.19;;;25.77;44.96
67818;BME280;54614;47.576;7.524;2023-05-23T08:14:03;98521.22;;;25.61;45.42
67818;BME280;54614;47.576;7.524;2023-05-23T08:16:29;98520.34;;;25.42;45.82
67818;BME280;54614;47.576;7.524;2023-05-23T08:18:55;98517.00;;;25.47;45.89
67818;BME280;54614;47.576;7.524;2023-05-23T08:21:22;98511.69;;;25.65;45.13
67818;BME280;54614;47.576;7.524;2023-05-23T08:23:48;98517.19;;;25.77;45.11
67818;BME280;54614;47.576;7.524;2023-05-23T08:26:14;98509.28;;;25.82;44.91
67818;BME280;54614;47.576;7.524;2023-05-23T08:28:40;98510.53;;;25.79;44.81
67818;BME280;54614;47.576;7.524;2023-05-23T08:31:06;98518.47;;;25.74;44.94
67818;BME280;54614;47.576;7.524;2023-05-23T08:33:32;98527.09;;;25.83;44.77
67818;BME280;54614;47.576;7.524;2023-05-23T08:35:57;98523.03;;;25.74;45.09
67818;BME280;54614;47.576;7.524;2023-05-23T08:38:23;98527.53;;;25.80;44.86
67818;BME280;54614;47.576;7.524;2023-05-23T08:40:50;98519.19;;;25.56;45.05
67818;BME280;54614;47.576;7.524;2023-05-23T08:43:17;98523.66;;;25.44;45.59
67818;BME280;54614;47.576;7.524;2023-05-23T08:45:44;98526.00;;;25.59;45.59
67818;BME280;54614;47.576;7.524;2023-05-23T08:48:12;98530.34;;;25.66;45.06
67818;BME280;54614;47.576;7.524;2023-05-23T08:50:45;98538.22;;;25.61;45.28
67818;BME280;54614;47.576;7.524;2023-05-23T08:53:14;98530.50;;;25.72;45.02
67818;BME280;54614;47.576;7.524;2023-05-23T08:55:46;98537.47;;;25.79;44.78
67818;BME280;54614;47.576;7.524;2023-05-23T08:58:14;98528.19;;;25.75;44.71
67818;BME280;54614;47.576;7.524;2023-05-23T09:00:41;98537.25;;;25.81;44.44
67818;BME280;54614;47.576;7.524;2023-05-23T09:03:08;98532.53;;;25.76;44.86
67818;BME280;54614;47.576;7.524;2023-05-23T09:05:35;98530.94;;;25.68;44.91
67818;BME280;54614;47.576;7.524;2023-05-23T09:08:01;98536.34;;;25.37;45.40
67818;BME280;54614;47.576;7.524;2023-05-23T09:10:27;98540.69;;;25.38;45.49
67818;BME280;54614;47.576;7.524;2023-05-23T09:12:54;98530.63;;;25.52;45.24
67818;BME280;54614;47.576;7.524;2023-05-23T09:15:21;98535.88;;;25.72;44.90
67818;BME280;54614;47.576;7.524;2023-05-23T09:17:48;98530.56;;;25.65;44.99
67818;BME280;54614;47.576;7.524;2023-05-23T09:20:17;98534.84;;;25.73;44.63
67818;BME280;54614;47.576;7.524;2023-05-23T09:22:47;98541.44;;;25.77;44.68
67818;BME280;54614;47.576;7.524;2023-05-23T09:25:14;98537.53;;;25.73;44.59
67818;BME280;54614;47.576;7.524;2023-05-23T09:27:41;98543.38;;;25.69;44.54
67818;BME280;54614;47.576;7.524;2023-05-23T09:30:09;98528.34;;;25.80;44.55
67818;BME280;54614;47.576;7.524;2023-05-23T09:32:36;98533.75;;;25.80;44.49
67818;BME280;54614;47.576;7.524;2023-05-23T09:35:07;98532.59;;;25.38;45.32
67818;BME280;54614;47.576;7.524;2023-05-23T09:37:44;98525.94;;;25.41;45.11
67818;BME280;54614;47.576;7.524;2023-05-23T09:40:13;98527.50;;;25.55;45.10
67818;BME280;54614;47.576;7.524;2023-05-23T09:42:46;98526.16;;;25.70;44.55
67818;BME280;54614;47.576;7.524;2023-05-23T09:45:15;98523.41;;;25.77;44.41
67818;BME280;54614;47.576;7.524;2023-05-23T09:47:53;98521.53;;;25.78;44.64
67818;BME280;54614;47.576;7.524;2023-05-23T09:50:20;98514.44;;;25.83;44.34
67818;BME280;54614;47.576;7.524;2023-05-23T09:52:46;98510.53;;;25.79;44.49
67818;BME280;54614;47.576;7.524;2023-05-23T09:55:12;98519.22;;;25.81;44.40
67818;BME280;54614;47.576;7.524;2023-05-23T09:57:41;98509.44;;;25.87;44.30
67818;BME280;54614;47.576;7.524;2023-05-23T10:00:09;98508.44;;;25.81;44.36
67818;BME280;54614;47.576;7.524;2023-05-23T10:03:04;98503.63;;;25.58;44.77
67818;BME280;54614;47.576;7.524;2023-05-23T10:13:45;98504.53;;;25.77;44.31
67818;BME280;54614;47.576;7.524;2023-05-23T10:16:26;98500.19;;;25.76;44.44
67818;BME280;54614;47.576;7.524;2023-05-23T10:19:15;98497.06;;;25.79;44.39
67818;BME280;54614;47.576;7.524;2023-05-23T10:21:49;98498.50;;;25.82;44.14
67818;BME280;54614;47.576;7.524;2023-05-23T10:24:16;98497.22;;;25.84;44.29
67818;BME280;54614;47.576;7.524;2023-05-23T10:26:44;98493.47;;;25.85;44.26
67818;BME280;54614;47.576;7.524;2023-05-23T10:29:10;98494.19;;;25.49;44.66
67818;BME280;54614;47.576;7.524;2023-05-23T10:31:37;98493.59;;;25.47;44.80
67818;BME280;54614;47.576;7.524;2023-05-23T10:37:02;98487.78;;;25.75;44.36
67818;BME280;54614;47.576;7.524;2023-05-23T10:39:56;98494.16;;;25.81;44.17
67818;BME280;54614;47.576;7.524;2023-05-23T10:45:46;98500.88;;;25.72;44.16
67818;BME280;54614;47.576;7.524;2023-05-23T10:48:35;98507.03;;;25.79;44.14
67818;BME280;54614;47.576;7.524;2023-05-23T10:51:10;98503.22;;;25.86;43.92
67818;BME280;54614;47.576;7.524;2023-05-23T10:53:40;98498.06;;;25.85;43.78
67818;BME280;54614;47.576;7.524;2023-05-23T10:56:09;98497.44;;;25.58;44.51
67818;BME280;54614;47.576;7.524;2023-05-23T10:58:37;98501.06;;;25.45;44.79
67818;BME280;54614;47.576;7.524;2023-05-23T11:01:08;98495.84;;;25.50;44.70
67818;BME280;54614;47.576;7.524;2023-05-23T11:06:39;98499.09;;;25.84;44.08
67818;BME280;54614;47.576;7.524;2023-05-23T11:09:12;98498.66;;;25.87;44.03
67818;BME280;54614;47.576;7.524;2023-05-23T11:11:54;98507.19;;;25.84;43.94
67818;BME280;54614;47.576;7.524;2023-05-23T11:19:38;98498.81;;;25.42;44.85
67818;BME280;54614;47.576;7.524;2023-05-23T11:22:08;98498.75;;;25.49;44.75
67818;BME280;54614;47.576;7.524;2023-05-23T11:24:52;98495.50;;;25.40;45.06
67818;BME280;54614;47.576;7.524;2023-05-23T11:27:30;98501.66;;;25.47;44.62
67818;BME280;54614;47.576;7.524;2023-05-23T11:30:07;98497.31;;;25.46;44.94
67818;BME280;54614;47.576;7.524;2023-05-23T11:32:34;98494.91;;;25.38;44.91
67818;BME280;54614;47.576;7.524;2023-05-23T11:35:03;98493.91;;;25.32;45.03
67818;BME280;54614;47.576;7.524;2023-05-23T11:37:31;98488.75;;;25.31;45.12
67818;BME280;54614;47.576;7.524;2023-05-23T11:39:57;98486.81;;;25.38;44.79
67818;BME280;54614;47.576;7.524;2023-05-23T11:42:24;98492.22;;;25.38;44.99
67818;BME280;54614;47.576;7.524;2023-05-23T11:44:51;98489.03;;;25.73;44.29
67818;BME280;54614;47.576;7.524;2023-05-23T11:47:17;98484.41;;;25.80;43.86
67818;BME280;54614;47.576;7.524;2023-05-23T11:49:45;98481.03;;;25.59;44.48
67818;BME280;54614;47.576;7.524;2023-05-23T11:52:12;98484.84;;;25.52;44.66
67818;BME280;54614;47.576;7.524;2023-05-23T11:54:42;98484.69;;;25.47;44.75
67818;BME280;54614;47.576;7.524;2023-05-23T11:57:12;98487.47;;;25.58;44.43
67818;BME280;54614;47.576;7.524;2023-05-23T11:59:39;98486.13;;;25.74;43.95
67818;BME280;54614;47.576;7.524;2023-05-23T12:02:06;98487.50;;;25.83;43.87
67818;BME280;54614;47.576;7.524;2023-05-23T12:04:34;98474.31;;;25.75;43.85
67818;BME280;54614;47.576;7.524;2023-05-23T12:07:04;98476.94;;;25.82;43.75
67818;BME280;54614;47.576;7.524;2023-05-23T12:09:31;98478.53;;;25.89;43.57
67818;BME280;54614;47.576;7.524;2023-05-23T12:11:57;98470.66;;;25.88;43.76
67818;BME280;54614;47.576;7.524;2023-05-23T12:14:27;98472.47;;;25.94;43.62
67818;BME280;54614;47.576;7.524;2023-05-23T12:16:54;98462.94;;;25.73;44.06
67818;BME280;54614;47.576;7.524;2023-05-23T12:19:20;98473.84;;;25.53;44.47
67818;BME280;54614;47.576;7.524;2023-05-23T12:21:47;98471.28;;;25.40;44.88
67818;BME280;54614;47.576;7.524;2023-05-23T12:24:21;98470.84;;;25.68;44.43
67818;BME280;54614;47.576;7.524;2023-05-23T12:26:57;98475.41;;;25.67;44.17
67818;BME280;54614;47.576;7.524;2023-05-23T12:29:32;98480.84;;;25.86;43.66
67818;BME280;54614;47.576;7.524;2023-05-23T12:32:01;98472.91;;;25.91;43.72
67818;BME280;54614;47.576;7.524;2023-05-23T12:34:27;98474.19;;;25.88;43.75
67818;BME280;54614;47.576;7.524;2023-05-23T12:36:58;98470.44;;;25.89;43.94
67818;BME280;54614;47.576;7.524;2023-05-23T12:39:28;98474.78;;;25.90;43.62
67818;BME280;54614;47.576;7.524;2023-05-23T12:42:12;98473.28;;;25.94;43.33
67818;BME280;54614;47.576;7.524;2023-05-23T12:44:40;98472.94;;;25.66;44.24
67818;BME280;54614;47.576;7.524;2023-05-23T12:47:08;98470.13;;;25.54;44.28
67818;BME280;54614;47.576;7.524;2023-05-23T12:49:35;98466.44;;;25.49;44.37
67818;BME280;54614;47.576;7.524;2023-05-23T12:52:01;98457.91;;;25.77;43.91
67818;BME280;54614;47.576;7.524;2023-05-23T12:54:27;98459.50;;;25.84;43.83
67818;BME280;54614;47.576;7.524;2023-05-23T12:56:53;98456.81;;;25.84;43.65
67818;BME280;54614;47.576;7.524;2023-05-23T12:59:19;98454.72;;;25.86;43.55
67818;BME280;54614;47.576;7.524;2023-05-23T13:01:44;98456.13;;;25.89;43.67
67818;BME280;54614;47.576;7.524;2023-05-23T13:04:10;98458.00;;;25.88;43.64
67818;BME280;54614;47.576;7.524;2023-05-23T13:06:36;98450.69;;;25.95;43.32
67818;BME280;54614;47.576;7.524;2023-05-23T13:09:02;98451.06;;;25.99;43.44
67818;BME280;54614;47.576;7.524;2023-05-23T13:11:29;98446.75;;;25.73;43.99
67818;BME280;54614;47.576;7.524;2023-05-23T13:13:56;98453.34;;;25.52;44.47
67818;BME280;54614;47.576;7.524;2023-05-23T13:16:22;98459.84;;;25.69;44.12
67818;BME280;54614;47.576;7.524;2023-05-23T13:18:48;98451.03;;;25.81;43.77
67818;BME280;54614;47.576;7.524;2023-05-23T13:21:14;98454.88;;;25.91;43.58
67818;BME280;54614;47.576;7.524;2023-05-23T13:23:40;98453.81;;;25.92;43.57
67818;BME280;54614;47.576;7.524;2023-05-23T13:26:06;98460.84;;;25.93;43.23
67818;BME280;54614;47.576;7.524;2023-05-23T13:28:33;98446.41;;;25.88;43.59
67818;BME280;54614;47.576;7.524;2023-05-23T13:30:58;98454.94;;;25.85;43.48
67818;BME280;54614;47.576;7.524;2023-05-23T13:33:25;98463.41;;;25.88;43.46
67818;BME280;54614;47.576;7.524;2023-05-23T13:35:50;98457.41;;;25.86;43.50
67818;BME280;54614;47.576;7.524;2023-05-23T13:38:22;98455.81;;;25.79;43.73